Time;durP1;ratioP1;P1;durP2;ratioP2;P2;SDS_P1;SDS_P2;PMS_P1;PMS_P2;Temp;Humidity;BMP_temperature;BMP_pressure;BME280_temperature;BME280_humidity;BME280_pressure;Samples;Min_cycle;Max_cycle;Signal;HPM_P1;HPM_P2
2022/08/30 00:01:01;;;;;;;7.50;3.20;;;;;;;17.08;70.27;101947.41;5014044;28;20037;-78
2022/08/30 00:01:59;;;;;;;6.40;2.80;;;;;;;17.06;70.23;101943.97;5016254;28;20037;-78
2022/08/30 00:04:25;;;;;;;3.88;2.65;;;;;;;17.04;70.32;101948.41;5018475;28;20025;-78
2022/08/30 00:06:51;;;;;;;7.18;2.97;;;;;;;17.02;70.26;101945.84;5021132;28;20499;-78
2022/08/30 00:09:16;;;;;;;5.93;3.13;;;;;;;17.01;70.42;101949.41;5010798;28;20049;-78
2022/08/30 00:11:41;;;;;;;6.70;3.00;;;;;;;17.00;70.63;101945.06;5010756;28;20104;-78
2022/08/30 00:14:06;;;;;;;5.30;2.88;;;;;;;16.98;70.60;101931.97;5007796;28;20049;-78
2022/08/30 00:16:32;;;;;;;5.07;3.00;;;;;;;16.96;70.69;101927.66;5009719;28;20358;-78
2022/08/30 00:18:57;;;;;;;4.47;2.65;;;;;;;16.94;70.78;101929.44;5005231;28;20037;-78
2022/08/30 00:21:22;;;;;;;5.75;2.90;;;;;;;16.92;71.15;101933.91;5008829;28;20466;-78
2022/08/30 00:23:48;;;;;;;4.47;3.00;;;;;;;16.91;71.16;101937.47;5010308;28;20072;-78
2022/08/30 00:26:14;;;;;;;9.15;3.53;;;;;;;16.89;71.09;101932.25;5010438;28;20045;-78
2022/08/30 00:28:39;;;;;;;4.38;2.90;;;;;;;16.89;71.13;101941.91;5007042;28;20095;-78
2022/08/30 00:31:04;;;;;;;5.18;3.33;;;;;;;16.87;71.09;101941.09;5009152;28;20194;-78
2022/08/30 00:33:30;;;;;;;5.80;3.22;;;;;;;16.87;71.13;101938.47;5009139;28;20468;-78
2022/08/30 00:35:55;;;;;;;5.82;3.03;;;;;;;16.85;71.41;101930.63;5017171;28;20048;-78
2022/08/30 00:38:22;;;;;;;6.55;3.30;;;;;;;16.82;71.38;101938.66;5007044;28;20414;-78
2022/08/30 00:40:47;;;;;;;4.22;3.05;;;;;;;16.79;71.50;101936.97;5007119;28;20026;-78
2022/08/30 00:43:18;;;;;;;5.20;3.20;;;;;;;16.77;71.02;101933.53;5011901;28;20029;-78
2022/08/30 00:45:44;;;;;;;5.78;3.13;;;;;;;16.74;71.57;101932.78;5007965;28;20036;-78
2022/08/30 00:48:10;;;;;;;4.25;3.13;;;;;;;16.73;71.57;101938.94;5008000;28;20062;-78
2022/08/30 00:50:49;;;;;;;7.38;3.58;;;;;;;16.69;70.52;101935.56;5006757;28;20037;-78
2022/08/30 00:53:20;;;;;;;5.18;3.20;;;;;;;16.69;71.57;101946.09;5009444;28;20033;-78
2022/08/30 00:55:47;;;;;;;5.03;3.10;;;;;;;16.67;71.94;101942.66;5007908;28;20026;-78
2022/08/30 00:58:20;;;;;;;7.78;3.20;;;;;;;16.66;71.75;101946.19;5010610;28;20017;-78
2022/08/30 01:00:47;;;;;;;5.57;3.20;;;;;;;16.64;71.88;101943.63;5010150;28;20057;-78
2022/08/30 01:03:13;;;;;;;5.45;3.10;;;;;;;16.65;71.98;101944.47;5009808;28;20064;-78
2022/08/30 01:05:38;;;;;;;6.90;2.92;;;;;;;16.63;71.85;101944.53;5011607;28;20053;-78
2022/08/30 01:08:04;;;;;;;5.78;3.55;;;;;;;16.61;72.07;101938.47;5018733;28;20045;-78
2022/08/30 01:10:32;;;;;;;6.03;3.53;;;;;;;16.61;72.24;101946.34;5013982;28;20061;-78
2022/08/30 01:12:57;;;;;;;7.03;3.13;;;;;;;16.61;72.21;101942.84;5013602;28;20021;-78
2022/08/30 01:15:23;;;;;;;5.30;3.47;;;;;;;16.59;72.27;101944.66;5021902;28;20022;-78
2022/08/30 01:17:48;;;;;;;7.97;3.35;;;;;;;16.58;72.45;101948.19;5010893;28;20030;-78
2022/08/30 01:20:20;;;;;;;4.88;3.30;;;;;;;16.56;72.29;101944.78;5009252;28;20521;-78
2022/08/30 01:22:48;;;;;;;;;;;;;;;16.60;69.52;101949.00;5012528;28;20029;-78
2022/08/30 01:25:16;;;;;;;8.23;3.08;;;;;;;16.54;72.48;101957.94;5011110;28;20127;-78
2022/08/30 01:27:48;;;;;;;5.82;3.30;;;;;;;16.57;72.39;101962.25;5011047;28;20076;-78
2022/08/30 01:30:13;;;;;;;;;;;;;;;16.61;69.72;101964.72;5012265;28;20085;-78
2022/08/30 01:32:45;;;;;;;4.75;3.30;;;;;;;16.59;71.91;101960.41;5016981;28;19921;-78
2022/08/30 01:35:14;;;;;;;5.97;3.42;;;;;;;16.58;72.46;101956.94;5010663;28;20034;-78
2022/08/30 01:37:39;;;;;;;7.25;3.35;;;;;;;16.59;72.61;101957.78;5012603;28;20481;-78
2022/08/30 01:40:05;;;;;;;4.75;3.15;;;;;;;16.58;72.38;101959.56;5012174;28;20143;-78
2022/08/30 01:42:31;;;;;;;7.30;3.28;;;;;;;16.59;72.72;101957.78;5014203;28;20064;-78
2022/08/30 01:44:57;;;;;;;5.88;3.90;;;;;;;16.57;72.73;101957.00;5017386;28;20062;-78
2022/08/30 01:47:22;;;;;;;5.05;3.38;;;;;;;16.55;72.48;101954.41;5015301;28;20088;-78
2022/08/30 01:49:48;;;;;;;5.80;3.42;;;;;;;16.53;72.74;101951.84;5010297;28;20064;-78
2022/08/30 01:52:16;;;;;;;4.82;3.60;;;;;;;16.52;72.78;101955.38;5008960;28;20037;-78
2022/08/30 01:54:43;;;;;;;5.75;3.70;;;;;;;16.49;72.77;101957.22;5012603;28;20040;-78
2022/08/30 01:57:11;;;;;;;6.60;3.65;;;;;;;16.45;72.85;101956.47;5015258;28;20181;-78
2022/08/30 01:59:38;;;;;;;5.38;3.58;;;;;;;16.43;72.81;101945.16;5012934;28;20038;-78
2022/08/30 02:02:05;;;;;;;6.55;3.50;;;;;;;16.39;72.88;101941.78;5014985;28;20026;-78
2022/08/30 02:04:30;;;;;;;6.45;3.95;;;;;;;16.33;73.20;101934.09;5016501;28;20105;-78
2022/08/30 02:06:56;;;;;;;5.93;4.00;;;;;;;16.32;73.24;101939.41;5011663;28;20145;-78
2022/08/30 02:09:21;;;;;;;5.55;3.58;;;;;;;16.27;73.00;101938.69;5012221;28;20018;-78
2022/08/30 02:11:47;;;;;;;5.55;3.70;;;;;;;16.24;73.86;101937.03;5016710;28;20103;-78
2022/08/30 02:14:12;;;;;;;7.28;4.07;;;;;;;16.24;73.55;101944.91;5017047;28;20026;-78
2022/08/30 02:16:39;;;;;;;8.32;3.95;;;;;;;16.20;73.64;101938.91;5009181;28;20041;-78
2022/08/30 02:19:05;;;;;;;6.05;3.90;;;;;;;16.18;73.64;101943.34;5011117;28;20033;-78
2022/08/30 02:21:30;;;;;;;7.03;4.32;;;;;;;16.15;73.49;101940.81;5012185;28;20032;-78
2022/08/30 02:23:55;;;;;;;5.22;3.80;;;;;;;16.14;73.71;101933.84;5011068;28;20392;-78
2022/08/30 02:26:21;;;;;;;6.15;3.67;;;;;;;16.11;73.80;101928.69;5008923;28;20092;-78
2022/08/30 02:28:47;;;;;;;5.95;4.03;;;;;;;16.08;73.86;101931.41;5009893;28;20022;-78
2022/08/30 02:31:13;;;;;;;5.28;3.85;;;;;;;16.03;73.70;101930.72;5012890;28;20117;-78
2022/08/30 02:33:38;;;;;;;8.77;4.07;;;;;;;16.01;73.93;101929.91;5013414;28;20160;-78
2022/08/30 02:36:07;;;;;;;7.65;3.95;;;;;;;16.00;73.82;101936.03;5011507;28;20036;-78
2022/08/30 02:38:33;;;;;;;6.60;4.03;;;;;;;15.98;73.93;101937.84;5012126;28;20069;-78
2022/08/30 02:40:58;;;;;;;6.30;3.90;;;;;;;15.97;73.93;101936.13;5011755;28;20057;-78
2022/08/30 02:43:24;;;;;;;4.53;3.75;;;;;;;15.98;74.26;101932.59;5009130;28;20033;-78
2022/08/30 02:45:49;;;;;;;7.40;3.75;;;;;;;15.97;74.27;101933.50;5012972;28;20036;-78
2022/08/30 02:48:14;;;;;;;5.43;3.80;;;;;;;15.96;74.03;101930.03;5012203;28;20072;-78
2022/08/30 02:50:46;;;;;;;7.63;4.10;;;;;;;15.95;74.07;101937.94;5011892;28;20041;-78
2022/08/30 02:53:11;;;;;;;5.47;3.97;;;;;;;15.95;74.17;101937.94;5012630;28;20053;-78
2022/08/30 02:55:37;;;;;;;6.68;4.03;;;;;;;15.93;74.33;101936.22;5017776;28;20068;-78
2022/08/30 02:58:02;;;;;;;6.05;4.15;;;;;;;15.91;74.39;101929.31;5013499;28;20060;-78
2022/08/30 03:00:28;;;;;;;5.45;4.03;;;;;;;15.91;74.50;101931.94;5012721;28;20080;-78
2022/08/30 03:02:53;;;;;;;5.88;4.05;;;;;;;15.89;74.43;101924.09;5016721;28;20025;-78
2022/08/30 03:05:19;;;;;;;7.28;4.22;;;;;;;15.90;74.60;101920.56;5015953;28;20033;-78
2022/08/30 03:07:46;;;;;;;4.78;3.83;;;;;;;15.88;74.40;101918.91;5010855;28;20042;-78
2022/08/30 03:10:12;;;;;;;5.18;3.83;;;;;;;15.88;74.56;101919.78;4998477;28;20488;-78
2022/08/30 03:12:37;;;;;;;5.63;4.03;;;;;;;15.86;74.72;101916.34;5020219;28;20033;-78
2022/08/30 03:15:04;;;;;;;6.35;4.15;;;;;;;15.83;74.84;101913.78;5020438;28;20030;-78
2022/08/30 03:17:30;;;;;;;8.55;4.28;;;;;;;15.82;74.94;101914.69;5012451;28;20108;-78
2022/08/30 03:19:56;;;;;;;5.70;4.57;;;;;;;15.81;74.88;101910.34;5011765;28;20317;-78
2022/08/30 03:22:21;;;;;;;6.68;4.15;;;;;;;15.79;74.81;101912.16;5008695;28;20033;-78
2022/08/30 03:24:46;;;;;;;6.72;4.32;;;;;;;15.78;74.71;101915.66;5014684;28;20500;-78
2022/08/30 03:27:12;;;;;;;4.93;4.18;;;;;;;15.77;74.78;101903.47;5014102;28;20040;-78
2022/08/30 03:29:38;;;;;;;5.95;4.45;;;;;;;15.76;74.97;101906.97;5009681;28;20080;-78
2022/08/30 03:32:03;;;;;;;8.35;4.18;;;;;;;15.74;75.09;101912.28;5011485;28;20047;-78
2022/08/30 03:34:29;;;;;;;5.57;4.32;;;;;;;15.71;75.05;101909.75;5013291;28;20025;-78
2022/08/30 03:36:55;;;;;;;7.25;4.18;;;;;;;15.71;74.94;101916.78;5011049;28;20037;-78
2022/08/30 03:39:22;;;;;;;8.02;4.13;;;;;;;15.66;75.21;101911.66;4996788;28;20041;-78
2022/08/30 03:41:48;;;;;;;6.05;4.55;;;;;;;15.66;75.46;101919.53;5010953;28;20385;-78
2022/08/30 03:44:13;;;;;;;6.38;4.35;;;;;;;15.65;75.35;101920.41;5009666;28;20021;-78
2022/08/30 03:46:39;;;;;;;6.47;4.53;;;;;;;15.66;75.29;101929.16;5016399;28;20025;-78
2022/08/30 03:49:06;;;;;;;5.03;4.38;;;;;;;15.62;75.60;101924.00;5014758;28;20481;-78
2022/08/30 03:51:32;;;;;;;5.28;4.32;;;;;;;15.65;75.39;101916.97;5009454;28;20038;-78
2022/08/30 03:53:58;;;;;;;5.88;4.50;;;;;;;15.62;75.47;101918.75;5011621;28;20022;-78
2022/08/30 03:56:23;;;;;;;6.18;4.80;;;;;;;15.61;75.52;101913.56;5007921;28;20029;-78
2022/08/30 03:58:49;;;;;;;6.75;4.60;;;;;;;15.60;75.50;101923.19;5010122;28;20017;-78
2022/08/30 04:01:15;;;;;;;6.38;4.53;;;;;;;15.58;75.62;101919.75;5026076;28;20029;-78
2022/08/30 04:03:40;;;;;;;6.93;4.90;;;;;;;15.56;75.59;101926.78;5008988;28;20026;-78
2022/08/30 04:06:05;;;;;;;5.60;4.50;;;;;;;15.55;75.62;101927.69;5004212;28;20041;-78
2022/08/30 04:08:31;;;;;;;7.03;4.63;;;;;;;15.52;75.77;101925.19;5008682;28;20042;-78
2022/08/30 04:10:56;;;;;;;6.68;5.03;;;;;;;15.51;75.84;101923.47;5002633;28;20044;-78
2022/08/30 04:13:22;;;;;;;7.38;4.80;;;;;;;15.49;75.74;101922.66;5003078;28;20029;-78
2022/08/30 04:15:49;;;;;;;7.30;5.32;;;;;;;15.48;75.73;101927.03;5006092;28;20116;-78
2022/08/30 04:18:15;;;;;;;8.40;5.13;;;;;;;15.45;75.75;101923.63;5004877;28;20102;-78
2022/08/30 04:20:41;;;;;;;6.60;5.25;;;;;;;15.42;75.79;101924.59;5005602;28;20440;-78
2022/08/30 04:23:06;;;;;;;7.00;4.93;;;;;;;15.43;75.77;101914.94;5007532;28;20101;-78
2022/08/30 04:25:36;;;;;;;7.95;5.25;;;;;;;15.42;75.66;101927.22;5007640;28;20037;-78
2022/08/30 04:28:03;;;;;;;7.80;5.25;;;;;;;15.39;75.79;101924.69;5008293;28;20025;-77
2022/08/30 04:30:29;;;;;;;8.57;5.25;;;;;;;15.38;75.91;101925.59;5007557;28;20037;-78
2022/08/30 04:32:54;;;;;;;9.60;5.28;;;;;;;15.36;75.95;101926.53;5009440;28;20460;-78
2022/08/30 04:35:20;;;;;;;7.50;5.47;;;;;;;15.31;75.87;101922.28;5004565;28;20030;-78
2022/08/30 04:37:45;;;;;;;7.43;5.50;;;;;;;15.30;76.16;101931.03;5002604;28;20033;-78
2022/08/30 04:40:12;;;;;;;9.52;5.95;;;;;;;15.28;76.09;101932.84;5005651;28;20373;-78
2022/08/30 04:42:38;;;;;;;8.63;5.82;;;;;;;15.25;76.25;101938.16;4984804;28;20022;-78
2022/08/30 04:45:07;;;;;;;6.72;5.43;;;;;;;15.24;76.30;101935.59;5005936;28;20652;-78
2022/08/30 04:47:33;;;;;;;7.50;5.43;;;;;;;15.22;76.44;101937.41;5006222;28;20038;-78
2022/08/30 04:49:58;;;;;;;8.57;6.10;;;;;;;15.20;76.37;101939.22;5008537;28;20495;-78
2022/08/30 04:52:23;;;;;;;9.57;5.78;;;;;;;15.20;76.37;101944.44;5007698;28;20034;-78
2022/08/30 04:54:57;;;;;;;8.75;5.78;;;;;;;15.17;76.44;101946.25;5006175;28;20381;-78
2022/08/30 04:57:24;;;;;;;8.82;5.93;;;;;;;15.17;76.57;101945.41;5004703;28;20057;-78
2022/08/30 04:59:49;;;;;;;7.57;5.88;;;;;;;15.18;76.61;101955.00;5004767;28;20030;-78
2022/08/30 05:02:14;;;;;;;8.93;6.28;;;;;;;15.17;76.49;101951.50;5005496;28;20512;-78
2022/08/30 05:05:38;;;;;;;6.97;6.03;;;;;;;15.18;76.57;101952.38;4998696;28;20045;-78
2022/08/30 05:07:25;;;;;;;7.75;6.15;;;;;;;15.20;76.63;101953.16;5005579;28;20412;-78
2022/08/30 05:09:50;;;;;;;10.18;6.55;;;;;;;15.18;76.46;101947.13;5001149;28;20047;-78
2022/08/30 05:12:15;;;;;;;7.50;6.13;;;;;;;15.17;76.71;101951.50;4986268;28;20030;-78
2022/08/30 05:14:41;;;;;;;9.23;6.18;;;;;;;15.18;76.50;101950.59;5002256;28;20146;-78
2022/08/30 05:17:06;;;;;;;8.95;5.63;;;;;;;15.19;76.62;101946.22;5010913;28;20113;-78
2022/08/30 05:19:32;;;;;;;7.63;6.50;;;;;;;15.20;76.63;101955.78;5007487;28;20030;-78
2022/08/30 05:21:58;;;;;;;7.95;5.93;;;;;;;15.18;76.77;101960.22;5005250;28;20026;-78
2022/08/30 05:24:24;;;;;;;10.63;6.30;;;;;;;15.21;76.77;101959.28;5006158;28;20041;-78
2022/08/30 05:26:49;;;;;;;9.07;6.57;;;;;;;15.21;76.66;101961.91;5007121;28;20064;-78
2022/08/30 05:29:14;;;;;;;8.93;7.43;;;;;;;15.21;76.79;101960.13;5005140;28;20034;-78
2022/08/30 05:31:39;;;;;;;9.18;6.40;;;;;;;15.23;76.81;101968.81;5002387;28;20026;-78
2022/08/30 05:34:05;;;;;;;7.50;6.32;;;;;;;15.24;77.01;101967.06;5005144;28;20463;-78
2022/08/30 05:36:33;;;;;;;8.85;6.60;;;;;;;15.26;76.99;101967.88;5004134;28;20086;-78
2022/08/30 05:38:59;;;;;;;8.43;6.28;;;;;;;15.26;76.91;101970.50;5005456;28;20177;-78
2022/08/30 05:41:25;;;;;;;6.88;6.03;;;;;;;15.28;77.00;101972.16;5008623;28;20185;-78
2022/08/30 05:43:55;;;;;;;8.20;6.07;;;;;;;15.31;76.84;101979.97;5002093;28;20061;-78
2022/08/30 05:46:20;;;;;;;7.40;6.38;;;;;;;15.36;76.85;101978.97;5005543;28;20068;-78
2022/08/30 05:48:48;;;;;;;8.55;6.43;;;;;;;15.38;76.71;101974.53;5007409;28;20038;-78
2022/08/30 05:51:17;;;;;;;7.95;6.40;;;;;;;15.41;76.77;101971.81;5006896;28;20109;-78
2022/08/30 05:53:44;;;;;;;11.15;6.40;;;;;;;15.44;76.50;101970.00;5007565;28;20030;-78
2022/08/30 05:56:16;;;;;;;10.23;6.80;;;;;;;15.46;76.30;101973.41;5011456;28;20022;-78
2022/08/30 05:58:42;;;;;;;9.77;6.70;;;;;;;15.48;76.10;101978.63;5017271;28;20481;-78
2022/08/30 06:01:21;;;;;;;7.75;6.60;;;;;;;15.47;75.74;101976.91;5020902;28;20017;-78
2022/08/30 06:03:46;;;;;;;7.30;6.20;;;;;;;15.49;76.10;101988.22;5011096;28;20021;-78
2022/08/30 06:06:12;;;;;;;14.02;6.43;;;;;;;15.53;76.38;101984.63;5004504;28;20034;-78
2022/08/30 06:08:37;;;;;;;9.25;6.55;;;;;;;15.56;76.30;101967.91;5016929;28;20054;-78
2022/08/30 06:11:02;;;;;;;7.90;6.25;;;;;;;15.60;76.25;101966.94;5007820;28;20025;-78
2022/08/30 06:13:27;;;;;;;7.60;6.28;;;;;;;15.67;76.17;101965.00;5010782;28;20025;-78
2022/08/30 06:15:53;;;;;;;9.63;6.70;;;;;;;15.72;76.00;101976.19;5005761;28;20404;-78
2022/08/30 06:18:18;;;;;;;7.68;6.13;;;;;;;15.76;76.14;101975.19;5006626;28;20037;-78
2022/08/30 06:20:47;;;;;;;8.35;5.70;;;;;;;15.78;75.79;101976.03;5008362;28;20026;-78
2022/08/30 06:23:16;;;;;;;8.43;6.13;;;;;;;15.81;75.55;101972.44;5014980;28;20018;-78
2022/08/30 06:25:42;;;;;;;9.23;5.90;;;;;;;15.85;75.77;101964.47;5005054;28;20030;-78
2022/08/30 06:28:08;;;;;;;7.90;5.72;;;;;;;15.88;75.72;101969.66;5007187;28;20026;-78
2022/08/30 06:30:34;;;;;;;8.63;5.45;;;;;;;15.93;75.85;101964.25;5007302;28;20034;-78
2022/08/30 06:32:59;;;;;;;7.50;5.30;;;;;;;15.98;75.21;101969.34;5006853;28;20100;-78
2022/08/30 06:35:27;;;;;;;7.22;6.03;;;;;;;16.01;74.92;101970.09;5007030;28;20065;-78
2022/08/30 06:37:53;;;;;;;8.13;6.07;;;;;;;16.05;75.14;101961.25;5004418;28;20524;-78
2022/08/30 06:40:20;;;;;;;7.82;6.40;;;;;;;16.09;75.18;101962.00;5009585;28;20113;-78
2022/08/30 06:42:46;;;;;;;5.68;4.93;;;;;;;16.13;74.92;101962.78;5003455;28;20120;-78
2022/08/30 06:45:11;;;;;;;6.55;4.95;;;;;;;16.18;74.76;101960.84;5005298;28;20113;-78
2022/08/30 06:47:37;;;;;;;7.90;5.55;;;;;;;16.21;74.52;101972.13;5011300;28;20477;-78
2022/08/30 06:50:03;;;;;;;5.95;4.93;;;;;;;16.27;74.59;101964.94;5006604;28;20049;-78
2022/08/30 06:52:28;;;;;;;6.20;4.97;;;;;;;16.30;74.31;101964.88;5010386;28;20029;-78
2022/08/30 06:54:55;;;;;;;6.88;5.80;;;;;;;16.34;73.61;101969.13;4989515;28;20030;-78
2022/08/30 06:57:20;;;;;;;9.57;6.28;;;;;;;16.37;73.76;101971.66;5007360;28;21420;-78
2022/08/30 06:59:45;;;;;;;6.03;5.07;;;;;;;16.41;73.81;101968.00;5007318;28;20087;-78
2022/08/30 07:02:10;;;;;;;6.65;4.90;;;;;;;16.46;73.84;101965.25;5008345;28;20028;-78
2022/08/30 07:04:37;;;;;;;5.88;4.88;;;;;;;16.52;73.48;101967.66;5003432;28;20033;-78
2022/08/30 07:07:02;;;;;;;7.93;5.38;;;;;;;16.56;73.62;101968.44;5007913;28;20046;-78
2022/08/30 07:09:28;;;;;;;7.18;5.00;;;;;;;16.58;73.01;101971.84;5010611;28;20037;-78
2022/08/30 07:11:53;;;;;;;8.93;5.05;;;;;;;16.62;73.27;101981.34;5002442;28;20033;-78
2022/08/30 07:14:19;;;;;;;5.85;4.93;;;;;;;16.64;72.58;101972.53;5010170;28;20034;-78
2022/08/30 07:16:45;;;;;;;5.82;5.03;;;;;;;16.69;72.73;101967.09;5008913;28;20056;-78
2022/08/30 07:19:10;;;;;;;6.72;4.90;;;;;;;16.73;72.76;101970.47;5006909;28;20069;-78
2022/08/30 07:21:39;;;;;;;8.25;5.57;;;;;;;16.78;72.83;101974.66;5008207;28;20017;-78
2022/08/30 07:24:05;;;;;;;6.10;5.15;;;;;;;16.84;72.27;101977.09;5002150;28;20029;-78
2022/08/30 07:26:39;;;;;;;5.95;5.00;;;;;;;16.88;71.84;101975.22;5006944;28;20037;-78
2022/08/30 07:29:04;;;;;;;7.90;5.43;;;;;;;16.93;72.11;101975.03;5004459;28;20038;-78
2022/08/30 07:31:30;;;;;;;8.85;5.40;;;;;;;16.99;72.75;101980.13;5006912;28;20029;-78
2022/08/30 07:33:55;;;;;;;7.45;4.82;;;;;;;17.07;72.45;101982.50;5006103;28;20393;-78
2022/08/30 07:36:21;;;;;;;5.93;4.75;;;;;;;17.11;71.52;101978.84;5011437;28;20385;-78
2022/08/30 07:38:48;;;;;;;6.18;4.75;;;;;;;17.15;71.74;101983.09;5011791;28;20034;-78
2022/08/30 07:41:20;;;;;;;5.97;4.80;;;;;;;17.21;71.63;101995.16;5001959;28;20064;-78
2022/08/30 07:43:46;;;;;;;6.43;4.63;;;;;;;17.26;71.03;101993.22;5003002;28;20104;-78
2022/08/30 07:46:11;;;;;;;6.00;4.68;;;;;;;17.31;71.21;101988.66;5008428;28;20100;-78
2022/08/30 07:48:36;;;;;;;4.55;4.03;;;;;;;17.35;70.97;101992.91;5005449;28;20057;-78
2022/08/30 07:51:03;;;;;;;6.15;4.50;;;;;;;17.41;70.92;101997.94;5005720;28;20485;-78
2022/08/30 07:53:29;;;;;;;6.65;4.45;;;;;;;17.48;70.68;101997.72;5007415;28;20033;-78
2022/08/30 07:55:55;;;;;;;5.13;4.18;;;;;;;17.55;70.56;102000.06;4999489;28;20396;-78
2022/08/30 07:58:20;;;;;;;5.88;3.92;;;;;;;17.60;69.94;102002.50;5011298;28;20460;-78
2022/08/30 08:00:45;;;;;;;4.68;3.60;;;;;;;17.65;69.05;101997.94;5009723;28;20030;-78
2022/08/30 08:03:11;;;;;;;4.10;2.97;;;;;;;17.72;69.27;101999.44;4990585;28;20021;-78
2022/08/30 08:05:39;;;;;;;4.45;3.50;;;;;;;17.77;68.42;101993.13;5013069;28;20091;-78
2022/08/30 08:08:04;;;;;;;5.97;3.60;;;;;;;17.80;68.36;101993.91;5006941;28;20073;-79
2022/08/30 08:10:30;;;;;;;4.68;3.17;;;;;;;17.84;68.28;101997.25;5008860;28;20060;-78
2022/08/30 08:12:55;;;;;;;4.60;3.05;;;;;;;17.88;68.54;102001.50;5008778;28;20473;-78
2022/08/30 08:15:21;;;;;;;4.65;3.30;;;;;;;17.92;68.69;102003.09;5008110;28;20025;-78
2022/08/30 08:17:46;;;;;;;4.50;3.30;;;;;;;17.97;68.54;102001.13;5007557;28;20031;-78
2022/08/30 08:20:11;;;;;;;4.68;3.15;;;;;;;18.03;68.63;102006.22;5007691;28;20468;-78
2022/08/30 08:22:37;;;;;;;6.22;3.22;;;;;;;18.10;67.70;101995.44;5008560;28;20045;-78
2022/08/30 08:25:03;;;;;;;4.40;2.95;;;;;;;18.15;67.70;101998.75;5005543;28;20389;-78
2022/08/30 08:27:28;;;;;;;3.80;2.80;;;;;;;18.20;67.66;101996.78;5013965;28;20103;-78
2022/08/30 08:29:53;;;;;;;3.60;2.88;;;;;;;18.24;66.73;102003.66;5015149;28;20029;-78
2022/08/30 08:32:19;;;;;;;3.53;2.60;;;;;;;18.30;66.46;101997.28;5008402;28;20076;-78
2022/08/30 08:34:44;;;;;;;5.35;2.72;;;;;;;18.37;66.31;102000.53;5009954;28;20021;-78
2022/08/30 08:37:09;;;;;;;2.97;2.58;;;;;;;18.42;65.71;101996.78;5004833;28;20477;-78
2022/08/30 08:39:34;;;;;;;2.85;2.25;;;;;;;18.50;65.55;101999.97;5006757;28;20029;-78
2022/08/30 08:42:17;;;;;;;3.85;2.30;;;;;;;18.58;65.45;102002.31;5005258;28;20041;-78
2022/08/30 08:45:04;;;;;;;2.65;2.13;;;;;;;18.68;65.71;102001.91;5006574;28;20037;-78
2022/08/30 08:48:07;;;;;;;3.47;2.53;;;;;;;18.76;65.39;102003.31;5011194;28;20057;-78
2022/08/30 08:50:32;;;;;;;3.60;2.10;;;;;;;18.85;63.90;102002.06;5007786;28;20018;-78
2022/08/30 08:55:51;;;;;;;3.58;2.28;;;;;;;19.01;63.95;102011.97;5007338;28;20051;-78
2022/08/30 08:58:25;;;;;;;3.40;2.30;;;;;;;19.07;64.73;102011.72;5000181;28;20056;-78
2022/08/30 09:00:51;;;;;;;3.15;2.25;;;;;;;19.13;62.49;102008.81;5007050;28;20030;-78
2022/08/30 09:03:20;;;;;;;3.45;2.28;;;;;;;19.18;62.47;102006.00;5004431;28;20038;-78
2022/08/30 09:05:46;;;;;;;4.45;2.22;;;;;;;19.23;62.42;102010.16;4999561;28;21044;-78
2022/08/30 09:08:15;;;;;;;4.00;2.40;;;;;;;19.25;62.50;102016.22;5001689;28;20104;-78
2022/08/30 09:10:47;;;;;;;3.03;2.03;;;;;;;19.34;62.29;102017.59;5002864;28;20026;-78
2022/08/30 09:13:13;;;;;;;3.40;2.40;;;;;;;19.42;61.63;102006.69;5004756;28;20038;-78
2022/08/30 09:15:38;;;;;;;4.03;2.10;;;;;;;19.51;62.70;102008.91;5004144;28;20042;-78
2022/08/30 09:18:07;;;;;;;5.35;2.17;;;;;;;19.57;61.41;102007.78;5001775;28;20033;-78
2022/08/30 09:20:35;;;;;;;3.33;2.08;;;;;;;19.60;60.87;102009.44;5004647;28;20405;-77
2022/08/30 09:23:16;;;;;;;3.22;2.00;;;;;;;19.60;61.45;102012.06;5002318;28;20029;-78
2022/08/30 09:25:55;;;;;;;4.90;2.05;;;;;;;19.62;61.79;102008.44;5003014;28;20038;-78
2022/08/30 09:28:42;;;;;;;3.38;1.80;;;;;;;19.66;61.77;102006.50;5006287;28;20069;-78
2022/08/30 09:31:23;;;;;;;2.38;1.75;;;;;;;19.67;61.30;102008.22;5004004;28;20928;-78
2022/08/30 09:34:08;;;;;;;1.88;1.52;;;;;;;19.70;61.32;102008.06;5005895;28;20061;-78
2022/08/30 09:36:42;;;;;;;1.95;1.55;;;;;;;19.72;60.49;102011.50;5006221;28;20116;-78
2022/08/30 09:39:25;;;;;;;2.58;1.60;;;;;;;19.78;60.40;102010.38;5008186;28;20037;-78
2022/08/30 09:41:51;;;;;;;3.22;1.80;;;;;;;19.84;58.69;102000.38;5009174;28;20041;-78
2022/08/30 09:44:23;;;;;;;3.50;1.70;;;;;;;19.92;59.27;102007.13;5007684;28;20036;-78
2022/08/30 09:46:55;;;;;;;3.58;1.60;;;;;;;19.96;60.11;102003.41;5007982;28;20033;-78
2022/08/30 09:49:41;;;;;;;2.88;1.70;;;;;;;19.97;59.92;102007.78;5006789;28;20045;-78
2022/08/30 09:52:25;;;;;;;2.70;1.45;;;;;;;19.99;59.67;102004.13;4990092;28;20109;-78
2022/08/30 09:55:06;;;;;;;3.42;1.65;;;;;;;20.05;62.05;102004.78;5008315;28;20034;-78
2022/08/30 09:57:43;;;;;;;1.92;1.58;;;;;;;20.11;60.39;101996.53;5007600;28;20473;-78
2022/08/30 10:00:15;;;;;;;2.85;1.50;;;;;;;20.13;58.64;102000.84;5005719;28;20086;-78
2022/08/30 10:02:46;;;;;;;2.88;1.75;;;;;;;20.16;58.93;102000.66;5007795;28;20045;-78
2022/08/30 10:05:12;;;;;;;3.33;1.70;;;;;;;20.23;58.53;102001.25;5006833;28;20025;-77
2022/08/30 10:08:11;;;;;;;2.05;1.60;;;;;;;20.30;58.81;101991.25;5004517;28;20492;-78
2022/08/30 10:10:57;;;;;;;6.32;1.80;;;;;;;20.42;58.69;101995.03;5002461;28;20125;-78
2022/08/30 10:14:12;;;;;;;2.42;1.50;;;;;;;20.54;57.76;102004.16;5001416;28;20026;-78
2022/08/30 10:17:03;;;;;;;2.08;1.30;;;;;;;20.67;57.77;101993.84;4921224;29;20054;-78
2022/08/30 10:19:41;;;;;;;2.78;1.58;;;;;;;20.76;57.59;101998.69;4925936;29;20039;-78
2022/08/30 10:22:32;;;;;;;2.20;1.40;;;;;;;20.83;57.38;101999.25;4981214;28;20046;-78
2022/08/30 10:25:21;;;;;;;2.90;1.20;;;;;;;20.88;56.62;102002.50;5004774;28;20548;-78
2022/08/30 10:27:57;;;;;;;3.85;1.38;;;;;;;20.93;55.79;102001.31;5003958;28;20378;-78
2022/08/30 10:30:23;;;;;;;3.20;1.20;;;;;;;20.99;55.28;101997.53;5003345;28;20861;-78
2022/08/30 10:32:51;;;;;;;2.70;1.33;;;;;;;21.03;55.50;101991.13;5003317;28;20120;-78
2022/08/30 10:35:23;;;;;;;3.53;1.40;;;;;;;21.05;54.66;101989.25;5004639;28;20021;-78
2022/08/30 10:38:23;;;;;;;2.50;1.42;;;;;;;21.05;55.66;101994.56;4986281;28;20125;-78
2022/08/30 10:41:13;;;;;;;2.70;1.15;;;;;;;21.00;55.02;101990.44;4973650;28;20037;-78
2022/08/30 10:44:08;;;;;;;8.10;1.25;;;;;;;21.00;55.84;101993.09;5002905;28;20065;-78
2022/08/30 10:47:08;;;;;;;2.95;1.30;;;;;;;21.03;55.86;101983.19;5001784;28;20488;-78
2022/08/30 10:49:39;;;;;;;1.95;1.30;;;;;;;21.05;53.81;101989.25;4978738;28;20068;-78
2022/08/30 10:52:33;;;;;;;5.20;1.30;;;;;;;21.09;55.37;101984.69;5004162;28;20159;-78
2022/08/30 10:55:04;;;;;;;2.17;1.40;;;;;;;21.15;54.83;101983.50;5004723;28;20303;-78
2022/08/30 10:57:29;;;;;;;3.45;1.40;;;;;;;21.15;52.81;101981.69;5004734;28;20112;-78
2022/08/30 11:00:07;;;;;;;2.05;1.40;;;;;;;21.18;54.51;101981.53;5003327;28;20515;-78
2022/08/30 11:02:57;;;;;;;3.92;1.45;;;;;;;21.20;54.95;101989.38;5005623;28;20026;-78
2022/08/30 11:05:41;;;;;;;3.38;1.38;;;;;;;21.20;53.34;101986.75;5002619;28;20505;-78
2022/08/30 11:08:09;;;;;;;3.47;1.50;;;;;;;21.20;53.41;101981.44;5005523;28;20103;-78
2022/08/30 11:11:04;;;;;;;1.98;1.30;;;;;;;21.22;53.77;101969.00;5005031;28;20062;-78
2022/08/30 11:13:34;;;;;;;2.67;1.30;;;;;;;21.22;52.44;101980.44;5005147;28;20030;-78
2022/08/30 11:16:06;;;;;;;3.92;1.48;;;;;;;21.26;53.61;101977.66;5007700;28;20033;-78
2022/08/30 11:18:41;;;;;;;1.80;1.20;;;;;;;21.29;52.64;101980.09;5004633;28;20037;-78
2022/08/30 11:21:22;;;;;;;2.05;1.30;;;;;;;21.36;54.00;101970.91;5004543;28;20461;-78
2022/08/30 11:24:00;;;;;;;3.05;1.35;;;;;;;21.38;53.10;101979.63;5005407;28;20034;-78
2022/08/30 11:26:44;;;;;;;2.80;1.33;;;;;;;21.40;54.31;101975.13;5006806;28;20547;-78
2022/08/30 11:29:26;;;;;;;4.05;1.50;;;;;;;21.40;53.81;101974.25;5006056;28;20084;-78
2022/08/30 11:31:57;;;;;;;2.05;1.25;;;;;;;21.40;53.68;101972.47;5002017;28;20622;-78
2022/08/30 11:34:44;;;;;;;3.17;1.30;;;;;;;21.45;53.50;101966.91;5002623;28;20038;-78
2022/08/30 11:37:37;;;;;;;3.75;1.35;;;;;;;21.53;53.70;101975.28;5002398;28;20026;-78